Time;durP1;ratioP1;P1;durP2;ratioP2;P2;SDS_P1;SDS_P2;PMS_P1;PMS_P2;Temp;Humidity;BMP_temperature;BMP_pressure;BME280_temperature;BME280_humidity;BME280_pressure;Samples;Min_cycle;Max_cycle;Signal;HPM_P1;HPM_P2
2023/10/22 00:00:48;;;;;;;2.85;0.43;;;;;;;13.74;83.64;99614.81;5024823;28;20553;-76
2023/10/22 00:03:15;;;;;;;2.60;0.70;;;;;;;13.75;83.40;99616.53;5038611;28;20514;-74
2023/10/22 00:05:42;;;;;;;1.90;0.68;;;;;;;13.73;83.64;99621.09;5022270;28;20425;-74
2023/10/22 00:08:09;;;;;;;2.20;0.40;;;;;;;13.73;83.67;99622.88;5026711;28;20875;-74
2023/10/22 00:10:36;;;;;;;2.20;0.50;;;;;;;13.72;84.10;99631.75;5035238;28;20582;-74
2023/10/22 00:13:03;;;;;;;1.45;0.35;;;;;;;13.70;84.34;99634.53;5017446;28;20091;-74
2023/10/22 00:15:30;;;;;;;3.75;0.90;;;;;;;13.73;84.77;99638.78;5027216;28;20107;-73
2023/10/22 00:17:58;;;;;;;2.30;0.50;;;;;;;13.73;84.52;99630.81;5026558;28;20065;-74
2023/10/22 00:20:25;;;;;;;1.58;0.50;;;;;;;13.68;84.64;99631.13;5027224;28;20052;-74
2023/10/22 00:22:52;;;;;;;1.33;0.43;;;;;;;13.69;85.05;99635.47;5027028;28;20054;-74
2023/10/22 00:25:19;;;;;;;2.03;0.40;;;;;;;13.65;85.27;99640.09;5027418;28;20041;-74
2023/10/22 00:27:46;;;;;;;1.33;0.40;;;;;;;13.64;85.85;99650.78;5008532;28;20052;-75
2023/10/22 00:30:13;;;;;;;0.90;0.40;;;;;;;13.61;85.69;99630.63;5032756;28;20050;-74
2023/10/22 00:32:40;;;;;;;1.98;0.50;;;;;;;13.61;85.79;99637.75;5025742;28;20053;-74
2023/10/22 00:35:08;;;;;;;1.30;0.45;;;;;;;13.57;86.09;99634.44;5006947;28;20038;-75
2023/10/22 00:37:35;;;;;;;3.58;0.50;;;;;;;13.56;86.06;99627.44;5006302;28;20647;-75
2023/10/22 00:40:03;;;;;;;3.33;0.80;;;;;;;13.54;86.42;99628.47;5017170;28;20719;-75
2023/10/22 00:42:30;;;;;;;1.58;0.47;;;;;;;13.52;86.58;99636.50;5020836;28;20041;-77
2023/10/22 00:44:57;;;;;;;2.97;0.60;;;;;;;13.48;86.58;99637.66;5017465;28;20128;-78
2023/10/22 00:47:24;;;;;;;3.70;0.63;;;;;;;13.45;87.11;99636.03;5029647;28;20048;-77
2023/10/22 00:49:52;;;;;;;2.22;0.82;;;;;;;13.41;87.29;99645.13;5023554;28;20583;-76
2023/10/22 00:52:19;;;;;;;2.28;0.57;;;;;;;13.40;87.42;99643.41;5025229;28;20595;-76
2023/10/22 00:54:47;;;;;;;2.15;0.52;;;;;;;13.36;87.52;99645.38;5025296;28;20042;-76
2023/10/22 00:57:15;;;;;;;2.72;0.73;;;;;;;13.34;87.78;99647.25;5006732;28;20129;-74
2023/10/22 00:59:42;;;;;;;2.50;0.70;;;;;;;13.34;88.00;99647.25;5040762;28;20073;-75
2023/10/22 01:02:10;;;;;;;4.82;0.77;;;;;;;13.34;88.28;99659.63;5026376;28;20045;-74
2023/10/22 01:04:37;;;;;;;4.97;0.55;;;;;;;13.33;88.13;99656.13;5016120;28;20049;-77
2023/10/22 01:07:06;;;;;;;2.45;0.63;;;;;;;13.34;88.18;99663.13;5031398;28;20682;-75
2023/10/22 01:09:33;;;;;;;4.00;0.75;;;;;;;13.38;88.48;99662.97;5026176;28;20041;-74
2023/10/22 01:12:04;;;;;;;4.65;0.73;;;;;;;13.40;88.56;99667.25;5028568;28;20046;-76
2023/10/22 01:14:32;;;;;;;2.60;0.50;;;;;;;13.40;88.72;99666.38;5038826;28;20063;-76
2023/10/22 01:17:00;;;;;;;2.10;0.60;;;;;;;13.40;88.77;99674.31;5037534;28;20127;-76
2023/10/22 01:19:27;;;;;;;3.22;0.70;;;;;;;13.41;88.93;99676.03;5013176;28;20049;-76
2023/10/22 01:21:54;;;;;;;1.38;0.50;;;;;;;13.41;89.04;99681.31;5009007;28;20132;-74
2023/10/22 01:24:21;;;;;;;1.75;0.63;;;;;;;13.42;89.13;99691.84;5018096;28;20561;-74
2023/10/22 01:26:49;;;;;;;2.08;0.70;;;;;;;13.43;89.60;99679.44;5033453;28;20045;-75
2023/10/22 01:29:15;;;;;;;1.63;0.55;;;;;;;13.43;89.45;99679.44;5026231;28;20049;-74
2023/10/22 01:31:42;;;;;;;2.60;0.70;;;;;;;13.43;88.73;99677.63;5040836;28;20579;-74
2023/10/22 01:34:09;;;;;;;6.35;0.80;;;;;;;13.43;89.48;99684.72;5021870;28;20051;-74
2023/10/22 01:36:36;;;;;;;3.42;0.82;;;;;;;13.43;88.96;99690.84;5012981;28;20145;-75
2023/10/22 01:39:04;;;;;;;3.28;0.60;;;;;;;13.46;88.92;99682.75;5022254;28;20060;-74
2023/10/22 01:41:31;;;;;;;3.28;1.00;;;;;;;13.48;88.75;99691.44;5020421;28;20053;-74
2023/10/22 01:43:59;;;;;;;3.65;0.70;;;;;;;13.53;87.81;99692.97;5010550;28;20568;-75
2023/10/22 01:46:26;;;;;;;2.10;0.57;;;;;;;13.51;88.13;99685.97;5019547;28;20527;-75
2023/10/22 01:48:53;;;;;;;3.17;0.80;;;;;;;13.53;88.61;99690.34;5005971;28;20080;-75
2023/10/22 01:51:20;;;;;;;2.10;0.40;;;;;;;13.53;87.94;99691.16;5005283;28;20125;-75
2023/10/22 01:53:47;;;;;;;3.05;0.50;;;;;;;13.55;88.08;99697.22;5017047;28;20156;-75
2023/10/22 01:56:14;;;;;;;2.42;0.52;;;;;;;13.55;87.75;99686.63;5012907;28;20049;-77
2023/10/22 01:58:44;;;;;;;8.20;1.00;;;;;;;13.53;88.03;99696.47;5005616;28;20073;-77
2023/10/22 02:01:12;;;;;;;3.50;0.70;;;;;;;13.55;87.94;99697.22;5017235;28;20052;-75
2023/10/22 02:03:44;;;;;;;1.75;0.75;;;;;;;13.54;88.27;99702.59;5025593;28;20038;-75
2023/10/22 02:06:15;;;;;;;2.92;0.45;;;;;;;13.53;88.38;99706.22;5026857;28;20082;-75
2023/10/22 02:08:42;;;;;;;1.15;0.40;;;;;;;13.51;88.40;99703.63;5019954;28;20541;-75
2023/10/22 02:11:09;;;;;;;1.63;0.45;;;;;;;13.49;88.36;99700.22;5025952;28;20072;-76
2023/10/22 02:13:37;;;;;;;1.88;0.60;;;;;;;13.49;88.56;99711.69;5011342;28;20069;-75
2023/10/22 02:16:05;;;;;;;2.42;0.50;;;;;;;13.47;88.83;99721.50;5006466;28;20050;-75
2023/10/22 02:18:34;;;;;;;2.55;0.55;;;;;;;13.48;88.59;99725.03;5004743;28;20506;-74
2023/10/22 02:21:03;;;;;;;2.92;0.60;;;;;;;13.47;88.82;99725.97;5023059;28;20049;-74
2023/10/22 02:23:30;;;;;;;3.45;0.60;;;;;;;13.46;89.16;99726.91;5040421;28;20045;-75
2023/10/22 02:25:57;;;;;;;2.35;0.80;;;;;;;13.44;89.46;99742.03;5008017;28;20145;-77
2023/10/22 02:28:24;;;;;;;2.53;0.63;;;;;;;13.44;89.64;99739.38;5004921;28;20064;-77
2023/10/22 02:30:51;;;;;;;2.63;0.68;;;;;;;13.43;89.43;99738.50;5022473;28;20136;-77
2023/10/22 02:33:18;;;;;;;3.67;0.57;;;;;;;13.43;89.64;99754.41;5025538;28;20528;-77
2023/10/22 02:35:46;;;;;;;3.63;0.52;;;;;;;13.43;89.82;99754.41;5009770;28;20100;-76
2023/10/22 02:38:17;;;;;;;1.92;0.65;;;;;;;13.41;90.13;99764.25;5005387;28;20084;-75
2023/10/22 02:40:50;;;;;;;1.83;0.68;;;;;;;13.42;90.50;99763.31;5008369;28;20635;-79
2023/10/22 02:43:17;;;;;;;3.15;0.90;;;;;;;13.37;91.42;99770.63;5021094;28;20054;-74
2023/10/22 02:45:52;;;;;;;3.10;0.68;;;;;;;13.31;91.88;99774.47;5016556;28;20069;-75
2023/10/22 02:48:19;;;;;;;2.72;0.65;;;;;;;13.27;92.57;99783.56;5026326;28;20049;-75
2023/10/22 02:50:47;;;;;;;1.65;0.60;;;;;;;13.20;92.97;99795.41;5025381;28;20054;-74
2023/10/22 02:53:16;;;;;;;1.50;0.57;;;;;;;13.15;93.77;99800.16;5044205;28;20038;-74
2023/10/22 02:55:44;;;;;;;4.78;0.82;;;;;;;13.10;94.32;99802.19;5022498;28;20095;-74
2023/10/22 02:58:12;;;;;;;3.20;0.85;;;;;;;13.03;94.77;99813.13;5024417;28;20552;-75
2023/10/22 03:00:39;;;;;;;1.98;0.70;;;;;;;12.99;95.81;99808.94;5026937;28;20057;-75
2023/10/22 03:03:07;;;;;;;2.80;0.80;;;;;;;12.96;96.24;99808.28;5020864;28;20056;-75
2023/10/22 03:05:36;;;;;;;4.25;0.80;;;;;;;12.93;96.88;99819.00;5053223;28;20049;-74
2023/10/22 03:08:04;;;;;;;3.13;0.70;;;;;;;12.89;97.35;99818.34;5015035;28;20053;-75
2023/10/22 03:10:36;;;;;;;2.28;0.93;;;;;;;12.85;97.64;99833.53;5044657;28;20143;-77
2023/10/22 03:13:04;;;;;;;1.95;0.80;;;;;;;12.83;97.98;99826.63;5028725;28;20053;-77
2023/10/22 03:15:32;;;;;;;1.92;0.77;;;;;;;12.80;98.25;99830.31;5025793;28;20036;-77
2023/10/22 03:17:59;;;;;;;5.03;1.02;;;;;;;12.80;98.26;99842.66;5020540;28;20538;-77
2023/10/22 03:20:33;;;;;;;7.03;0.98;;;;;;;12.76;98.83;99844.63;4994847;28;20056;-78
2023/10/22 03:23:03;;;;;;;3.85;0.82;;;;;;;12.72;99.10;99846.59;5030849;28;20056;-76
2023/10/22 03:25:30;;;;;;;1.85;0.63;;;;;;;12.68;99.54;99847.69;5022302;28;20069;-75
2023/10/22 03:27:57;;;;;;;3.00;0.73;;;;;;;12.62;99.76;99850.69;5023362;28;20533;-77
2023/10/22 03:30:24;;;;;;;2.10;0.68;;;;;;;12.60;100.00;99867.56;5027384;28;20049;-76
2023/10/22 03:32:54;;;;;;;2.63;0.75;;;;;;;12.56;100.00;99861.59;5024477;28;20522;-77
2023/10/22 03:35:22;;;;;;;3.35;0.85;;;;;;;12.55;100.00;99868.66;5021778;28;20045;-77
2023/10/22 03:37:49;;;;;;;2.83;0.80;;;;;;;12.53;100.00;99872.31;5007017;28;20176;-76
2023/10/22 03:40:16;;;;;;;1.27;0.77;;;;;;;12.52;100.00;99878.56;5008438;28;20049;-76
2023/10/22 03:42:44;;;;;;;2.80;0.90;;;;;;;12.51;100.00;99876.84;5034522;28;20041;-75
2023/10/22 03:45:12;;;;;;;3.38;0.93;;;;;;;12.52;100.00;99891.78;5028627;28;20049;-75
2023/10/22 03:47:39;;;;;;;4.10;1.10;;;;;;;12.54;100.00;99889.91;5020435;28;20045;-75
2023/10/22 03:50:07;;;;;;;4.47;0.90;;;;;;;12.55;100.00;99904.84;5016248;28;20061;-75
2023/10/22 03:52:34;;;;;;;2.85;0.80;;;;;;;12.56;100.00;99895.97;5015193;28;20041;-76
2023/10/22 03:55:09;;;;;;;2.33;0.90;;;;;;;12.56;100.00;99895.97;5016038;28;20037;-75
2023/10/22 03:57:37;;;;;;;4.20;0.90;;;;;;;12.57;100.00;99897.66;5022646;28;20053;-75
2023/10/22 04:00:07;;;;;;;4.30;1.30;;;;;;;12.59;100.00;99901.06;5024488;28;20060;-75
2023/10/22 04:02:37;;;;;;;3.25;0.95;;;;;;;12.61;100.00;99917.72;5027226;28;20052;-75
2023/10/22 04:05:05;;;;;;;3.42;1.13;;;;;;;12.61;100.00;99914.22;5024934;28;20041;-76
2023/10/22 04:07:32;;;;;;;2.90;1.40;;;;;;;12.62;100.00;99932.63;5026765;28;20038;-76
2023/10/22 04:09:59;;;;;;;2.53;1.20;;;;;;;12.64;99.81;99946.63;5025840;28;20145;-77
2023/10/22 04:12:26;;;;;;;3.35;1.17;;;;;;;12.65;99.78;99943.06;5024255;28;20563;-77
2023/10/22 04:14:53;;;;;;;3.50;1.23;;;;;;;12.66;98.74;99954.47;5037009;28;20045;-77
2023/10/22 04:17:20;;;;;;;2.55;1.05;;;;;;;12.67;98.64;99956.19;5022531;28;20528;-78
2023/10/22 04:19:47;;;;;;;3.35;1.17;;;;;;;12.65;98.19;99968.63;5020944;28;21728;-78
2023/10/22 04:22:14;;;;;;;3.38;1.30;;;;;;;12.63;98.36;99970.50;5019410;28;20039;-77
2023/10/22 04:24:41;;;;;;;2.72;1.42;;;;;;;12.58;98.55;99971.63;5019146;28;20038;-76
2023/10/22 04:27:11;;;;;;;2.75;1.48;;;;;;;12.55;98.08;99974.41;5009438;28;20048;-77
2023/10/22 04:29:39;;;;;;;3.97;1.70;;;;;;;12.52;98.15;99992.22;5010788;28;20068;-76
2023/10/22 04:32:06;;;;;;;3.13;1.70;;;;;;;12.50;98.25;99980.88;5012708;28;20044;-78
2023/10/22 04:34:33;;;;;;;4.05;1.70;;;;;;;12.49;98.16;99989.72;5023706;28;20124;-76
2023/10/22 04:37:00;;;;;;;5.35;1.85;;;;;;;12.47;97.86;99997.75;5025649;28;20139;-75
2023/10/22 04:39:27;;;;;;;2.90;1.98;;;;;;;12.47;97.69;100005.69;5020419;28;20053;-76
2023/10/22 04:41:54;;;;;;;3.80;2.10;;;;;;;12.46;97.81;100005.78;5021817;28;20046;-76
2023/10/22 04:44:21;;;;;;;4.25;1.90;;;;;;;12.48;97.55;100017.09;5008490;28;20045;-76
2023/10/22 04:46:51;;;;;;;6.97;2.15;;;;;;;12.47;96.74;100020.66;5019434;28;20041;-76
2023/10/22 04:49:18;;;;;;;3.25;2.53;;;;;;;12.45;96.89;100026.03;5021548;28;20558;-76
2023/10/22 04:51:45;;;;;;;4.30;2.10;;;;;;;12.43;95.90;100023.50;5025432;28;20045;-74
2023/10/22 04:54:13;;;;;;;5.93;2.00;;;;;;;12.42;97.04;100027.06;5026226;28;20045;-76
2023/10/22 04:56:40;;;;;;;4.28;1.92;;;;;;;12.41;97.56;100027.16;5017171;28;20129;-76
2023/10/22 04:59:07;;;;;;;4.63;1.95;;;;;;;12.40;97.13;100043.94;5020576;28;20045;-75
2023/10/22 05:01:34;;;;;;;5.25;2.20;;;;;;;12.41;96.85;100045.66;5053199;28;20108;-77
2023/10/22 05:04:01;;;;;;;5.32;2.30;;;;;;;12.40;96.66;100049.22;5020681;28;20045;-75
2023/10/22 05:06:28;;;;;;;3.42;1.90;;;;;;;12.37;97.19;100047.56;5024618;28;20042;-76
2023/10/22 05:08:55;;;;;;;5.32;2.53;;;;;;;12.36;96.56;100053.78;5025973;28;20069;-75
2023/10/22 05:11:22;;;;;;;5.90;2.65;;;;;;;12.33;96.86;100053.97;5025799;28;20037;-75
2023/10/22 05:13:49;;;;;;;5.28;2.45;;;;;;;12.32;96.79;100068.09;5049714;28;20575;-75
2023/10/22 05:16:16;;;;;;;6.00;2.47;;;;;;;12.31;96.34;100065.56;5021541;28;20068;-75
2023/10/22 05:18:43;;;;;;;5.00;2.53;;;;;;;12.25;96.25;100077.28;5026306;28;20048;-75
2023/10/22 05:21:10;;;;;;;5.00;2.65;;;;;;;12.21;96.42;100081.84;5032983;28;20508;-75
2023/10/22 05:23:38;;;;;;;7.72;3.20;;;;;;;12.19;96.45;100088.13;5021698;28;20100;-75
2023/10/22 05:26:12;;;;;;;6.35;2.40;;;;;;;12.15;96.55;100100.66;5025469;28;20045;-75
2023/10/22 05:28:39;;;;;;;5.68;2.83;;;;;;;12.11;96.69;100099.06;5023271;28;20065;-76
2023/10/22 05:31:17;;;;;;;6.68;2.83;;;;;;;12.08;96.13;100100.09;5019745;28;20567;-76
2023/10/22 05:33:44;;;;;;;5.15;2.70;;;;;;;12.02;96.11;100104.81;5036342;28;20049;-75
2023/10/22 05:36:25;;;;;;;5.30;2.80;;;;;;;11.96;96.20;100119.13;5022404;28;20558;-75
2023/10/22 05:38:53;;;;;;;5.50;2.67;;;;;;;11.86;96.64;100115.22;5024236;28;20120;-75
2023/10/22 05:41:21;;;;;;;7.80;2.90;;;;;;;11.79;96.94;100125.22;5018353;28;20087;-76
2023/10/22 05:43:52;;;;;;;4.82;2.30;;;;;;;11.73;97.00;100133.41;5022972;28;20048;-75
2023/10/22 05:46:20;;;;;;;4.72;2.88;;;;;;;11.66;97.30;100138.13;5019530;28;20042;-75
2023/10/22 05:48:47;;;;;;;5.03;2.53;;;;;;;11.59;97.38;100144.63;5023615;28;20120;-75
2023/10/22 05:51:14;;;;;;;4.97;2.60;;;;;;;11.56;97.78;100150.91;5024837;28;20122;-75
2023/10/22 05:53:41;;;;;;;4.93;2.42;;;;;;;11.51;98.14;100163.44;5003739;28;20512;-76
2023/10/22 05:56:08;;;;;;;3.45;2.40;;;;;;;11.53;98.35;100152.81;5020475;28;20047;-75
2023/10/22 05:58:35;;;;;;;5.85;2.67;;;;;;;11.52;98.17;100151.09;5041402;28;20046;-75
2023/10/22 06:01:02;;;;;;;5.57;2.28;;;;;;;11.50;97.98;100159.06;5023070;28;20507;-75
2023/10/22 06:03:29;;;;;;;3.67;2.20;;;;;;;11.45;97.75;100161.09;5016683;28;20073;-78
2023/10/22 06:05:57;;;;;;;3.90;1.92;;;;;;;11.42;97.68;100161.22;5020392;28;20506;-77
2023/10/22 06:08:24;;;;;;;5.10;2.15;;;;;;;11.37;97.91;100171.97;5024518;28;20068;-75
2023/10/22 06:10:51;;;;;;;4.72;2.10;;;;;;;11.32;98.15;100171.34;5023073;28;20088;-76
2023/10/22 06:13:18;;;;;;;5.50;2.15;;;;;;;11.29;98.02;100176.72;5023582;28;20045;-75
2023/10/22 06:15:45;;;;;;;5.03;1.92;;;;;;;11.26;98.42;100188.28;5024333;28;20061;-77
2023/10/22 06:18:13;;;;;;;4.85;2.00;;;;;;;11.24;98.48;100178.72;5023350;28;20041;-76
2023/10/22 06:20:40;;;;;;;2.85;1.85;;;;;;;11.18;98.58;100185.97;5021731;28;20056;-75
2023/10/22 06:23:08;;;;;;;4.22;1.63;;;;;;;11.17;98.76;100191.31;5020716;28;20103;-76
2023/10/22 06:25:35;;;;;;;5.53;1.95;;;;;;;11.16;99.11;100195.72;5029581;28;20724;-73
2023/10/22 06:28:02;;;;;;;3.60;1.75;;;;;;;11.19;99.26;100200.03;5019263;28;20631;-71
2023/10/22 06:30:29;;;;;;;5.60;1.90;;;;;;;11.21;99.77;100202.59;5020044;28;20138;-71
2023/10/22 06:32:58;;;;;;;3.08;1.80;;;;;;;11.27;100.00;100215.53;5043571;28;20045;-71
2023/10/22 06:35:29;;;;;;;7.47;2.05;;;;;;;11.36;100.00;100223.03;5020606;28;20152;-71
2023/10/22 06:37:56;;;;;;;4.70;1.90;;;;;;;11.42;100.00;100229.81;5018513;28;20046;-71
2023/10/22 06:40:24;;;;;;;4.32;2.00;;;;;;;11.46;100.00;100232.25;5022169;28;20193;-72
2023/10/22 06:42:52;;;;;;;4.60;2.05;;;;;;;11.47;100.00;100223.44;5018912;28;20072;-71
2023/10/22 06:45:20;;;;;;;7.55;2.08;;;;;;;11.51;100.00;100234.69;5019667;28;20041;-71
2023/10/22 06:47:47;;;;;;;2.10;1.90;;;;;;;11.59;100.00;100244.94;5019228;28;20057;-71
2023/10/22 06:50:15;;;;;;;4.82;1.80;;;;;;;11.70;100.00;100237.41;5016479;28;20081;-71
2023/10/22 06:52:42;;;;;;;3.67;1.73;;;;;;;11.79;100.00;100244.06;5023351;28;20053;-71
2023/10/22 06:55:10;;;;;;;5.53;1.60;;;;;;;11.90;100.00;100251.50;5007701;28;20104;-71
2023/10/22 06:57:38;;;;;;;5.03;1.70;;;;;;;11.98;99.44;100261.75;5024221;28;20041;-71
2023/10/22 07:00:09;;;;;;;4.28;1.65;;;;;;;12.03;99.83;100260.59;5038002;28;20041;-71
2023/10/22 07:02:37;;;;;;;4.18;1.65;;;;;;;12.09;99.55;100262.97;5032160;28;20049;-71
2023/10/22 07:05:07;;;;;;;3.80;1.73;;;;;;;12.19;99.21;100265.19;5022148;28;20072;-70
2023/10/22 07:07:34;;;;;;;1.80;1.25;;;;;;;12.23;98.97;100278.16;5024138;28;20092;-70
2023/10/22 07:10:01;;;;;;;2.38;1.40;;;;;;;12.31;98.20;100280.47;5022569;28;20053;-71
2023/10/22 07:12:28;;;;;;;4.82;1.38;;;;;;;12.36;98.18;100282.91;5030612;28;20096;-71
2023/10/22 07:14:55;;;;;;;4.10;1.35;;;;;;;12.42;98.12;100288.75;5024049;28;20069;-70
2023/10/22 07:17:23;;;;;;;4.10;1.48;;;;;;;12.46;97.94;100293.91;5023191;28;20121;-70
2023/10/22 07:19:50;;;;;;;3.05;1.35;;;;;;;12.48;97.82;100294.66;5021298;28;20112;-71
2023/10/22 07:22:17;;;;;;;3.15;1.45;;;;;;;12.51;98.03;100291.91;5025069;28;20050;-71
2023/10/22 07:24:45;;;;;;;4.95;1.50;;;;;;;12.55;97.73;100298.75;5024137;28;20133;-70
2023/10/22 07:27:12;;;;;;;5.25;1.70;;;;;;;12.62;97.32;100312.53;5018395;28;20041;-70
2023/10/22 07:29:40;;;;;;;2.28;1.20;;;;;;;12.64;96.63;100318.59;5006844;28;20662;-70
2023/10/22 07:32:07;;;;;;;4.43;1.50;;;;;;;12.65;96.31;100315.03;5023505;28;20060;-71
2023/10/22 07:34:34;;;;;;;3.95;1.30;;;;;;;12.65;96.64;100315.91;5019153;28;20612;-71
2023/10/22 07:37:01;;;;;;;2.40;1.30;;;;;;;12.66;95.83;100322.03;5024809;28;20134;-72
2023/10/22 07:39:28;;;;;;;3.60;1.50;;;;;;;12.64;95.63;100324.78;5041422;28;20045;-72
2023/10/22 07:41:55;;;;;;;2.50;1.20;;;;;;;12.60;95.48;100333.75;5023010;28;20134;-72
2023/10/22 07:44:22;;;;;;;4.60;1.30;;;;;;;12.58;95.71;100336.50;5026600;28;20052;-72
2023/10/22 07:46:49;;;;;;;3.22;1.30;;;;;;;12.56;95.08;100332.22;5017632;28;20045;-72
2023/10/22 07:49:16;;;;;;;3.55;1.45;;;;;;;12.52;95.39;100338.56;5026723;28;20123;-73
2023/10/22 07:51:43;;;;;;;5.38;1.25;;;;;;;12.48;95.06;100343.13;5017386;28;20048;-73
2023/10/22 07:54:10;;;;;;;3.83;1.20;;;;;;;12.42;95.30;100348.69;5013795;28;20053;-72
2023/10/22 07:56:37;;;;;;;4.38;1.48;;;;;;;12.33;95.26;100349.97;5020151;28;20318;-72
2023/10/22 07:59:04;;;;;;;4.18;1.50;;;;;;;12.23;95.60;100351.31;5046319;28;20042;-72
2023/10/22 08:01:31;;;;;;;3.35;1.20;;;;;;;12.18;95.63;100348.00;5015747;28;20201;-72
2023/10/22 08:03:59;;;;;;;4.95;1.90;;;;;;;12.13;95.96;100350.03;5008953;28;20046;-72
2023/10/22 08:06:26;;;;;;;5.22;1.40;;;;;;;12.10;96.23;100365.06;5027608;28;20043;-72
2023/10/22 08:08:54;;;;;;;4.22;1.40;;;;;;;12.08;96.67;100358.16;5012510;28;20117;-73
2023/10/22 08:11:22;;;;;;;3.58;1.33;;;;;;;12.14;96.68;100362.31;4996427;28;20128;-71
2023/10/22 08:13:49;;;;;;;4.50;1.70;;;;;;;12.20;96.62;100365.53;5018148;28;20049;-72
2023/10/22 08:16:16;;;;;;;2.00;1.27;;;;;;;12.30;96.44;100365.13;5029185;28;20046;-74
2023/10/22 08:18:43;;;;;;;6.03;1.50;;;;;;;12.36;96.78;100372.75;5026412;28;20073;-73
2023/10/22 08:21:11;;;;;;;3.65;1.67;;;;;;;12.30;96.82;100373.91;5024030;28;20129;-73
2023/10/22 08:23:39;;;;;;;4.80;1.40;;;;;;;12.37;96.79;100385.06;5017203;28;20500;-72
2023/10/22 08:26:06;;;;;;;2.72;1.38;;;;;;;12.42;96.76;100383.06;5027326;28;20041;-72
2023/10/22 08:28:35;;;;;;;3.38;1.30;;;;;;;12.51;96.69;100376.50;5026733;28;20041;-72
2023/10/22 08:31:02;;;;;;;3.47;1.50;;;;;;;12.60;96.59;100389.28;5033117;28;20049;-72
2023/10/22 08:33:31;;;;;;;3.65;1.30;;;;;;;12.69;96.20;100395.94;5058886;28;20531;-72
2023/10/22 08:36:08;;;;;;;3.30;1.42;;;;;;;12.77;95.21;100391.16;5014366;28;20048;-72
2023/10/22 08:38:35;;;;;;;5.03;1.42;;;;;;;12.73;95.28;100395.75;5026823;28;20041;-73
2023/10/22 08:41:06;;;;;;;4.03;1.30;;;;;;;12.74;95.45;100396.59;5027462;28;20049;-72
2023/10/22 08:43:38;;;;;;;4.00;1.30;;;;;;;12.76;95.80;100404.47;5026288;28;20049;-72
2023/10/22 08:46:06;;;;;;;3.72;1.40;;;;;;;12.82;95.69;100405.00;5027319;28;20513;-72
2023/10/22 08:48:33;;;;;;;6.72;1.38;;;;;;;12.93;95.68;100406.28;5025735;28;20148;-72
2023/10/22 08:51:00;;;;;;;4.13;1.42;;;;;;;13.04;94.88;100417.25;5026321;28;20077;-72
2023/10/22 08:53:27;;;;;;;5.80;1.75;;;;;;;13.10;94.69;100416.97;5027345;28;20052;-72
2023/10/22 08:55:56;;;;;;;4.70;1.50;;;;;;;13.19;93.58;100421.81;5027001;28;20044;-72
2023/10/22 08:58:23;;;;;;;4.78;1.45;;;;;;;13.27;94.04;100423.22;5026638;28;20520;-73
2023/10/22 09:00:50;;;;;;;3.80;1.33;;;;;;;13.32;93.66;100432.66;5033027;28;20037;-72
2023/10/22 09:03:21;;;;;;;3.17;1.17;;;;;;;13.41;94.06;100425.22;5040712;28;20056;-72
2023/10/22 09:05:48;;;;;;;3.00;1.30;;;;;;;13.43;93.03;100428.66;5027206;28;20091;-72
2023/10/22 09:08:15;;;;;;;2.00;1.20;;;;;;;13.43;92.68;100440.09;5025489;28;20045;-73
2023/10/22 09:10:43;;;;;;;5.03;1.73;;;;;;;13.45;92.56;100442.69;5026440;28;20052;-72
2023/10/22 09:13:25;;;;;;;4.93;1.33;;;;;;;13.52;92.82;100446.75;5026367;28;20220;-72
2023/10/22 09:15:54;;;;;;;5.57;1.40;;;;;;;13.60;93.06;100451.69;5025390;28;20464;-73
2023/10/22 09:18:21;;;;;;;4.50;1.17;;;;;;;13.76;92.84;100457.09;5025488;28;20042;-72
2023/10/22 09:20:49;;;;;;;2.65;1.00;;;;;;;13.91;91.87;100456.28;5029489;28;20051;-72
2023/10/22 09:23:23;;;;;;;2.65;1.10;;;;;;;14.02;91.27;100452.25;5020984;28;20342;-73
2023/10/22 09:25:52;;;;;;;4.85;1.42;;;;;;;14.05;91.00;100462.69;5045175;28;20135;-73
2023/10/22 09:28:28;;;;;;;5.07;1.40;;;;;;;14.06;91.59;100459.13;5033525;28;20053;-73
2023/10/22 09:31:01;;;;;;;4.53;1.67;;;;;;;14.08;90.97;100467.84;5021375;28;20037;-73
2023/10/22 09:33:40;;;;;;;2.20;1.05;;;;;;;14.06;90.39;100464.41;5022752;28;20052;-73
2023/10/22 09:36:10;;;;;;;3.88;1.25;;;;;;;14.09;90.81;100470.41;5019420;28;20053;-73
2023/10/22 09:38:49;;;;;;;3.63;1.52;;;;;;;14.16;90.91;100472.75;5031365;28;20050;-73
2023/10/22 09:41:23;;;;;;;5.18;1.33;;;;;;;14.23;91.54;100475.00;5014266;28;20132;-73
2023/10/22 09:44:00;;;;;;;3.33;1.10;;;;;;;14.32;91.38;100480.78;5022593;28;20059;-73
2023/10/22 09:46:34;;;;;;;6.55;1.40;;;;;;;14.39;91.31;100487.50;5019708;28;20124;-73
2023/10/22 09:49:03;;;;;;;4.30;1.45;;;;;;;14.48;91.25;100483.47;5024703;28;20063;-73
2023/10/22 09:51:35;;;;;;;3.85;1.20;;;;;;;14.55;90.59;100495.50;5024210;28;20661;-73
2023/10/22 09:54:05;;;;;;;4.68;1.40;;;;;;;14.56;90.39;100492.75;5040541;28;20072;-73
2023/10/22 09:57:05;;;;;;;3.85;1.55;;;;;;;14.51;89.72;100493.94;5019306;28;20033;-73
2023/10/22 09:59:34;;;;;;;3.58;1.30;;;;;;;14.45;90.13;100495.97;5018238;28;20510;-73
2023/10/22 10:02:01;;;;;;;5.97;1.63;;;;;;;14.43;89.59;100495.22;5021653;28;20505;-73
2023/10/22 10:04:35;;;;;;;5.03;1.50;;;;;;;14.40;90.12;100503.31;5025377;28;20052;-73
2023/10/22 10:07:03;;;;;;;3.72;1.65;;;;;;;14.49;89.61;100501.13;5001378;28;20510;-73
2023/10/22 10:09:33;;;;;;;3.05;1.30;;;;;;;14.56;88.60;100500.72;5007252;28;20045;-73
2023/10/22 10:12:05;;;;;;;3.97;1.55;;;;;;;14.61;88.87;100500.47;5028900;28;20038;-73
2023/10/22 10:14:35;;;;;;;4.00;1.60;;;;;;;14.67;88.87;100510.78;5024915;28;20042;-73
2023/10/22 10:17:04;;;;;;;3.08;1.30;;;;;;;14.71;88.76;100520.31;5024843;28;20034;-73
2023/10/22 10:19:41;;;;;;;;;;;;;;;;;;;;;
2023/10/22 10:22:40;;;;;;;3.03;1.30;;;;;;;14.73;89.36;100520.22;5025812;28;20040;-74
2023/10/22 10:25:33;;;;;;;3.15;1.42;;;;;;;14.73;88.13;100523.75;5009742;28;21181;-73
2023/10/22 10:28:09;;;;;;;5.65;1.55;;;;;;;14.70;88.18;100525.72;5038029;28;20121;-73
2023/10/22 10:30:38;;;;;;;4.95;1.35;;;;;;;14.73;87.99;100528.19;5004891;28;20128;-73
2023/10/22 10:33:07;;;;;;;4.13;1.30;;;;;;;14.81;88.66;100530.44;5024258;28;20059;-74
2023/10/22 10:35:46;;;;;;;4.20;1.50;;;;;;;14.88;88.40;100532.69;5030560;28;20125;-74
2023/10/22 10:38:14;;;;;;;3.38;1.15;;;;;;;14.85;86.95;100540.81;5022806;28;20041;-73
2023/10/22 10:40:46;;;;;;;3.13;1.50;;;;;;;14.79;87.44;100527.88;5021821;28;20192;-73
2023/10/22 10:43:14;;;;;;;4.40;1.45;;;;;;;14.79;87.85;100535.84;5015256;28;20050;-73
2023/10/22 10:46:22;;;;;;;2.30;1.23;;;;;;;14.74;87.50;100538.72;5022231;28;20050;-74
2023/10/22 10:48:49;;;;;;;4.07;1.27;;;;;;;14.66;88.13;100535.56;5022973;28;20050;-74
2023/10/22 10:51:19;;;;;;;2.38;1.10;;;;;;;14.60;87.96;100533.25;5040747;28;20141;-73
2023/10/22 10:54:04;;;;;;;3.65;1.50;;;;;;;14.59;87.80;100535.06;5021607;28;20044;-73
2023/10/22 10:56:55;;;;;;;5.32;1.40;;;;;;;14.62;88.63;100541.09;5022928;28;20099;-74
2023/10/22 10:59:32;;;;;;;5.07;1.35;;;;;;;14.68;87.91;100533.72;5036428;28;20041;-72
2023/10/22 11:02:10;;;;;;;4.88;1.42;;;;;;;14.73;88.45;100539.66;5036014;28;20144;-74
2023/10/22 11:04:44;;;;;;;2.95;1.35;;;;;;;14.79;89.17;100532.31;5016799;28;20551;-73
2023/10/22 11:07:13;;;;;;;5.20;1.25;;;;;;;14.86;88.06;100539.88;5022012;28;20100;-72
2023/10/22 11:09:45;;;;;;;3.10;1.33;;;;;;;14.92;88.06;100549.31;5028225;28;20476;-73
2023/10/22 11:12:14;;;;;;;2.55;1.30;;;;;;;15.02;87.87;100547.00;5029090;28;20523;-72
2023/10/22 11:14:41;;;;;;;2.63;1.40;;;;;;;15.07;87.79;100548.47;5012303;28;20045;-73
2023/10/22 11:17:08;;;;;;;3.17;1.45;;;;;;;15.14;88.00;100553.47;5027755;28;20048;-73
2023/10/22 11:19:35;;;;;;;6.75;2.63;;;;;;;15.22;88.39;100561.88;5025243;28;20411;-75
2023/10/22 11:22:03;;;;;;;2.70;1.17;;;;;;;15.29;88.91;100555.28;5025644;28;20662;-73
2023/10/22 11:24:34;;;;;;;2.35;1.40;;;;;;;15.34;88.76;100557.66;5013163;28;20041;-74
2023/10/22 11:27:06;;;;;;;3.20;1.60;;;;;;;15.34;89.12;100561.19;5026323;28;20127;-74
2023/10/22 11:29:50;;;;;;;4.53;1.60;;;;;;;15.41;88.81;100566.16;5025264;28;20049;-72
2023/10/22 11:32:19;;;;;;;5.25;1.55;;;;;;;15.42;87.62;100571.38;5023008;28;20447;-73
2023/10/22 11:34:53;;;;;;;5.20;1.30;;;;;;;15.36;87.66;100569.91;5029269;28;20070;-73
2023/10/22 11:37:42;;;;;;;4.90;1.50;;;;;;;15.36;88.04;100569.91;5019206;28;20531;-73